Time;durP1;ratioP1;P1;durP2;ratioP2;P2;SDS_P1;SDS_P2;PMS_P1;PMS_P2;Temp;Humidity;BMP_temperature;BMP_pressure;BME280_temperature;BME280_humidity;BME280_pressure;Samples;Min_cycle;Max_cycle;Signal;HPM_P1;HPM_P2
2022/03/28 00:00:21;;;;;;;14.77;8.10;;;10.70;53.40;;;;;;5070850;28;20048;-44
2022/03/28 00:02:50;;;;;;;10.75;7.50;;;10.70;53.40;;;;;;5071316;28;20049;-49
2022/03/28 00:05:16;;;;;;;14.43;9.27;;;10.60;53.30;;;;;;5050421;28;20040;-46
2022/03/28 00:07:44;;;;;;;12.30;8.60;;;10.60;53.50;;;;;;5062448;28;20048;-47
2022/03/28 00:10:13;;;;;;;12.43;8.95;;;10.60;53.60;;;;;;5067366;28;20052;-45
2022/03/28 00:12:42;;;;;;;12.40;8.25;;;10.50;53.60;;;;;;5047896;28;20112;-45
2022/03/28 00:15:10;;;;;;;10.55;8.32;;;10.50;53.60;;;;;;5053060;28;20045;-45
2022/03/28 00:17:39;;;;;;;12.05;8.02;;;10.50;53.60;;;;;;5065865;28;20112;-45
2022/03/28 00:20:11;;;;;;;12.10;8.77;;;10.50;53.70;;;;;;5044798;28;20036;-44
2022/03/28 00:22:39;;;;;;;10.40;8.63;;;10.40;54.00;;;;;;5056922;28;20412;-48
2022/03/28 00:25:10;;;;;;;13.57;9.13;;;10.40;53.70;;;;;;5052089;28;20045;-46
2022/03/28 00:27:38;;;;;;;12.40;8.20;;;10.40;54.10;;;;;;5059925;28;20033;-49
2022/03/28 00:30:07;;;;;;;10.98;7.85;;;10.40;53.90;;;;;;5071163;28;20033;-49
2022/03/28 00:32:34;;;;;;;11.50;8.02;;;10.30;54.00;;;;;;5058259;28;20065;-50
2022/03/28 00:35:01;;;;;;;10.07;7.80;;;10.30;53.90;;;;;;5067139;28;20106;-49
2022/03/28 00:37:30;;;;;;;11.85;7.95;;;10.30;54.00;;;;;;5069797;28;20052;-48
2022/03/28 00:39:57;;;;;;;12.30;8.50;;;10.30;54.10;;;;;;5065431;28;20076;-47
2022/03/28 00:42:24;;;;;;;12.57;8.23;;;10.30;54.20;;;;;;5048165;28;20524;-47
2022/03/28 00:44:50;;;;;;;11.02;7.72;;;10.20;54.20;;;;;;5055688;28;20045;-45
2022/03/28 00:47:17;;;;;;;9.23;6.95;;;10.20;54.20;;;;;;5069555;28;20045;-49
2022/03/28 00:49:44;;;;;;;11.07;8.48;;;10.20;54.20;;;;;;5071158;28;20496;-46
2022/03/28 00:52:10;;;;;;;9.57;7.07;;;10.20;54.20;;;;;;5046771;28;20041;-47
2022/03/28 00:54:37;;;;;;;11.60;8.13;;;10.20;54.30;;;;;;5055142;28;20056;-45
2022/03/28 00:57:04;;;;;;;10.55;7.65;;;10.10;54.20;;;;;;5066198;28;20096;-45
2022/03/28 00:59:32;;;;;;;11.52;7.80;;;10.10;54.30;;;;;;5058901;28;20068;-50
2022/03/28 01:02:01;;;;;;;8.52;6.90;;;10.10;54.30;;;;;;5052133;28;20037;-47
2022/03/28 01:04:28;;;;;;;10.40;7.35;;;10.10;54.40;;;;;;5068715;28;20124;-44
2022/03/28 01:06:58;;;;;;;11.02;7.75;;;10.00;54.30;;;;;;5068093;28;20459;-49
2022/03/28 01:09:25;;;;;;;7.90;6.72;;;10.00;54.40;;;;;;5054994;28;20409;-47
2022/03/28 01:11:53;;;;;;;9.50;7.22;;;10.00;54.40;;;;;;5055379;28;20091;-47
2022/03/28 01:14:20;;;;;;;8.70;6.50;;;9.90;54.50;;;;;;5054502;28;20041;-44
2022/03/28 01:19:32;;;;;;;9.43;7.28;;;9.90;54.60;;;;;;5046253;28;20103;-46
2022/03/28 01:22:00;;;;;;;10.80;7.13;;;9.90;54.60;;;;;;5056976;28;20037;-48
2022/03/28 01:24:27;;;;;;;9.57;7.50;;;9.80;54.60;;;;;;5069630;28;20044;-44
2022/03/28 01:26:57;;;;;;;9.02;7.15;;;9.80;54.70;;;;;;5069750;28;20044;-44
2022/03/28 01:29:27;;;;;;;9.85;6.95;;;9.80;54.70;;;;;;5061882;28;20098;-45
2022/03/28 01:31:55;;;;;;;11.20;7.68;;;9.70;54.70;;;;;;5063091;28;20090;-48
2022/03/28 01:34:24;;;;;;;8.68;6.72;;;9.70;54.60;;;;;;5070329;28;20048;-46
2022/03/28 01:36:52;;;;;;;9.98;7.07;;;9.70;54.60;;;;;;5056281;28;20469;-45
2022/03/28 01:39:22;;;;;;;11.40;7.88;;;9.70;54.70;;;;;;5045561;28;20064;-45
2022/03/28 01:41:49;;;;;;;9.00;6.40;;;9.70;54.90;;;;;;5059026;28;20492;-44
2022/03/28 01:44:15;;;;;;;8.45;7.25;;;9.60;54.90;;;;;;5069619;28;20078;-44
2022/03/28 01:46:48;;;;;;;9.27;6.55;;;9.60;55.00;;;;;;5069280;28;20110;-47
2022/03/28 01:49:18;;;;;;;8.68;6.75;;;9.60;55.50;;;;;;5053791;28;20060;-46
2022/03/28 01:51:47;;;;;;;9.57;6.57;;;9.60;55.10;;;;;;5060347;28;20040;-48
2022/03/28 01:54:14;;;;;;;7.63;6.47;;;9.50;55.10;;;;;;5068436;28;20033;-46
2022/03/28 01:56:42;;;;;;;8.60;6.25;;;9.50;55.10;;;;;;5062751;28;20087;-46
2022/03/28 01:59:11;;;;;;;8.02;6.28;;;9.50;55.10;;;;;;5055616;28;20040;-49
2022/03/28 02:01:39;;;;;;;9.07;6.60;;;9.50;55.10;;;;;;5068437;28;20056;-44
2022/03/28 02:04:06;;;;;;;10.82;7.00;;;9.40;55.10;;;;;;5069955;28;20507;-46
2022/03/28 02:06:34;;;;;;;10.30;7.30;;;9.40;55.20;;;;;;5057697;28;20048;-47
2022/03/28 02:09:02;;;;;;;12.70;7.65;;;9.40;55.30;;;;;;5063711;28;20049;-47
2022/03/28 02:11:29;;;;;;;9.02;7.13;;;9.40;55.40;;;;;;5067643;28;20041;-45
2022/03/28 02:13:56;;;;;;;8.93;6.78;;;9.40;55.30;;;;;;5056949;28;20033;-46
2022/03/28 02:16:23;;;;;;;10.52;6.95;;;9.30;55.30;;;;;;5044783;28;20045;-48
2022/03/28 02:18:52;;;;;;;8.48;6.97;;;9.30;55.30;;;;;;5048520;28;20425;-44
2022/03/28 02:21:21;;;;;;;9.77;6.30;;;9.30;55.60;;;;;;5045578;28;20127;-48
2022/03/28 02:23:48;;;;;;;8.82;7.18;;;9.30;55.40;;;;;;5069466;28;20098;-47
2022/03/28 02:26:15;;;;;;;9.45;6.63;;;9.20;55.40;;;;;;5065860;28;20082;-51
2022/03/28 02:28:44;;;;;;;17.80;7.40;;;9.20;55.50;;;;;;5050279;28;20080;-50
2022/03/28 02:31:11;;;;;;;10.15;7.40;;;9.20;55.50;;;;;;5068972;28;20090;-44
2022/03/28 02:33:37;;;;;;;9.25;6.80;;;9.20;55.60;;;;;;5069558;28;20068;-47
2022/03/28 02:36:05;;;;;;;10.57;7.15;;;9.20;55.60;;;;;;5052033;28;20045;-46
2022/03/28 02:38:32;;;;;;;10.68;6.50;;;9.10;55.60;;;;;;5064546;28;20044;-46
2022/03/28 02:41:00;;;;;;;9.18;6.90;;;9.10;55.70;;;;;;5069488;28;20044;-44
2022/03/28 02:43:27;;;;;;;10.48;8.23;;;9.10;55.80;;;;;;5060897;28;20041;-42
2022/03/28 02:45:53;;;;;;;10.13;7.00;;;9.10;55.90;;;;;;5061417;28;20036;-44
2022/03/28 02:48:20;;;;;;;9.40;6.90;;;9.10;55.80;;;;;;5052832;28;20124;-43
2022/03/28 02:50:48;;;;;;;9.65;7.20;;;9.10;55.90;;;;;;5069432;28;20562;-44
2022/03/28 02:53:16;;;;;;;9.55;7.40;;;9.00;55.80;;;;;;5053371;28;20036;-45
2022/03/28 02:55:45;;;;;;;10.35;7.35;;;9.00;55.90;;;;;;5053901;28;20043;-44
2022/03/28 02:58:14;;;;;;;10.80;7.57;;;9.00;56.00;;;;;;5069725;28;20080;-43
2022/03/28 03:00:43;;;;;;;11.52;8.02;;;9.00;56.20;;;;;;5079471;22;20507;-44
2022/03/28 03:03:12;;;;;;;13.15;9.15;;;8.90;56.00;;;;;;5053531;28;20042;-47
2022/03/28 03:05:43;;;;;;;11.10;8.23;;;8.90;56.40;;;;;;5069216;28;20036;-46
2022/03/28 03:08:10;;;;;;;12.38;8.00;;;8.90;56.00;;;;;;5069408;28;20613;-45
2022/03/28 03:10:39;;;;;;;12.88;9.02;;;8.90;55.90;;;;;;5053180;28;20447;-46
2022/03/28 03:13:08;;;;;;;12.82;7.82;;;8.90;56.00;;;;;;5044616;28;20042;-46
2022/03/28 03:15:35;;;;;;;12.05;8.27;;;8.80;56.00;;;;;;5069190;28;20040;-48
2022/03/28 03:18:04;;;;;;;12.65;8.27;;;8.80;56.00;;;;;;5057495;28;20114;-47
2022/03/28 03:20:34;;;;;;;10.75;7.70;;;8.80;56.10;;;;;;5059133;28;20041;-45
2022/03/28 03:23:00;;;;;;;11.80;8.35;;;8.80;56.20;;;;;;5069777;28;20565;-44
2022/03/28 03:25:27;;;;;;;11.73;8.23;;;8.80;56.20;;;;;;5072440;28;20105;-47
2022/03/28 03:27:54;;;;;;;10.75;7.15;;;8.70;56.10;;;;;;5063805;28;20064;-48
2022/03/28 03:30:26;;;;;;;13.35;8.60;;;8.70;56.20;;;;;;5063956;28;20039;-47
2022/03/28 03:32:53;;;;;;;9.35;7.15;;;8.70;56.20;;;;;;5054823;28;20046;-45
2022/03/28 03:35:22;;;;;;;11.07;7.53;;;8.70;56.20;;;;;;5055768;28;20060;-48
2022/03/28 03:37:51;;;;;;;11.18;6.93;;;8.60;56.30;;;;;;5072103;28;20040;-45
2022/03/28 03:40:18;;;;;;;11.90;6.82;;;8.60;56.30;;;;;;5063695;28;20638;-49
2022/03/28 03:42:47;;;;;;;9.85;7.25;;;8.70;56.30;;;;;;5061574;28;20041;-48
2022/03/28 03:45:14;;;;;;;11.15;7.07;;;8.60;56.40;;;;;;5071416;28;20064;-47
2022/03/28 03:47:41;;;;;;;10.02;7.40;;;8.60;56.40;;;;;;5072084;28;20047;-48
2022/03/28 03:50:10;;;;;;;12.48;8.25;;;8.50;56.30;;;;;;5059090;28;20125;-47
2022/03/28 03:52:37;;;;;;;9.68;7.13;;;8.50;56.40;;;;;;5062833;28;20048;-48
2022/03/28 03:55:06;;;;;;;9.75;7.40;;;8.50;56.40;;;;;;5072340;28;20559;-48
2022/03/28 03:57:41;;;;;;;;;;;8.50;56.40;;;;;;5071141;28;20515;-48
2022/03/28 04:00:10;;;;;;;8.45;5.88;;;8.50;56.70;;;;;;5050481;28;20303;-50
2022/03/28 04:02:39;;;;;;;10.52;6.43;;;8.40;55.70;;;;;;5066575;28;20522;-50
2022/03/28 04:05:07;;;;;;;11.68;6.80;;;8.40;56.60;;;;;;5069175;28;20041;-50
2022/03/28 04:07:41;;;;;;;11.23;7.13;;;8.40;56.20;;;;;;5056009;28;20730;-49
2022/03/28 04:10:08;;;;;;;10.75;7.43;;;8.40;56.30;;;;;;5053034;28;20045;-48
2022/03/28 04:12:37;;;;;;;9.75;7.40;;;8.30;56.30;;;;;;5057741;28;20028;-51
2022/03/28 04:15:05;;;;;;;9.52;6.68;;;8.30;57.00;;;;;;5069707;28;20102;-48
2022/03/28 04:17:39;;;;;;;11.50;7.15;;;8.30;56.50;;;;;;5050472;28;20534;-49
2022/03/28 04:20:06;;;;;;;11.60;7.00;;;8.30;57.00;;;;;;5056018;28;20029;-47
2022/03/28 04:22:33;;;;;;;11.45;7.68;;;8.20;56.50;;;;;;5065173;28;20047;-50
2022/03/28 04:25:00;;;;;;;13.30;7.97;;;8.20;56.60;;;;;;5071511;28;20071;-49
2022/03/28 04:27:30;;;;;;;9.27;6.53;;;8.20;56.60;;;;;;5062937;28;20041;-48
2022/03/28 04:29:56;;;;;;;9.38;7.40;;;8.20;56.60;;;;;;5065647;28;20560;-49
2022/03/28 04:32:23;;;;;;;11.70;7.93;;;8.10;56.50;;;;;;5071385;28;20040;-48
2022/03/28 04:34:52;;;;;;;12.80;8.68;;;8.10;56.60;;;;;;5069184;28;20040;-47
2022/03/28 04:37:20;;;;;;;12.98;8.20;;;8.10;56.60;;;;;;5053550;28;20063;-50
2022/03/28 04:39:47;;;;;;;10.10;7.30;;;8.10;56.60;;;;;;5039007;28;20579;-49
2022/03/28 04:42:14;;;;;;;12.13;7.28;;;8.00;56.70;;;;;;5043801;28;20038;-48
2022/03/28 04:44:41;;;;;;;14.38;8.52;;;8.00;56.80;;;;;;5042913;28;20045;-50
2022/03/28 04:47:08;;;;;;;11.18;7.53;;;8.00;57.00;;;;;;5049076;28;20064;-51
2022/03/28 04:49:37;;;;;;;13.65;8.00;;;8.00;57.10;;;;;;5062701;28;20182;-48
2022/03/28 04:52:04;;;;;;;12.13;8.18;;;8.00;57.10;;;;;;5070201;28;20043;-47
2022/03/28 04:54:31;;;;;;;10.05;7.03;;;8.00;57.00;;;;;;5070868;28;20036;-50
2022/03/28 04:56:58;;;;;;;11.85;7.07;;;7.90;57.00;;;;;;5053370;28;20044;-49
2022/03/28 04:59:25;;;;;;;11.38;8.10;;;7.90;56.90;;;;;;5064199;28;20043;-46
2022/03/28 05:01:52;;;;;;;12.73;7.55;;;7.90;57.00;;;;;;5038607;28;20045;-51
2022/03/28 05:04:18;;;;;;;12.55;8.10;;;7.90;57.00;;;;;;5042267;28;20045;-48
2022/03/28 05:06:45;;;;;;;10.05;7.25;;;7.90;57.00;;;;;;5048909;28;20036;-47
2022/03/28 05:09:12;;;;;;;11.23;7.65;;;7.80;57.10;;;;;;5069023;28;20045;-49
2022/03/28 05:11:39;;;;;;;12.40;7.57;;;7.90;57.10;;;;;;5056754;28;20506;-50
2022/03/28 05:14:06;;;;;;;10.95;6.95;;;7.80;57.10;;;;;;5057316;28;20041;-50
2022/03/28 05:16:33;;;;;;;11.45;7.53;;;7.80;57.10;;;;;;5046770;28;20423;-52
2022/03/28 05:19:03;;;;;;;11.63;7.50;;;7.80;57.10;;;;;;5051299;28;20051;-48
2022/03/28 05:21:30;;;;;;;11.32;7.57;;;7.80;57.10;;;;;;5060005;28;20040;-48
2022/03/28 05:23:57;;;;;;;11.15;7.68;;;7.80;57.10;;;;;;5056912;28;20045;-48
2022/03/28 05:26:24;;;;;;;12.27;8.13;;;7.70;57.20;;;;;;5053827;28;20115;-50
2022/03/28 05:28:50;;;;;;;11.20;7.75;;;7.70;57.20;;;;;;5051980;28;20497;-51
2022/03/28 05:31:17;;;;;;;12.40;7.38;;;7.70;57.20;;;;;;5040124;28;20041;-49
2022/03/28 05:33:44;;;;;;;9.55;7.18;;;7.70;57.30;;;;;;5051526;28;20086;-51
2022/03/28 05:36:13;;;;;;;9.85;7.22;;;7.70;57.30;;;;;;5066708;28;20037;-49
2022/03/28 05:38:40;;;;;;;13.40;8.40;;;7.70;57.50;;;;;;5039586;28;20034;-47
2022/03/28 05:41:08;;;;;;;10.68;7.53;;;7.60;57.40;;;;;;5043252;28;20052;-50
2022/03/28 05:43:36;;;;;;;14.10;8.68;;;7.70;57.50;;;;;;5048425;28;20045;-51
2022/03/28 05:46:04;;;;;;;14.20;8.13;;;7.60;57.60;;;;;;5069109;28;20072;-47
2022/03/28 05:48:31;;;;;;;14.30;8.20;;;7.60;57.70;;;;;;5068151;28;20545;-49
2022/03/28 05:50:58;;;;;;;15.43;8.68;;;7.60;57.70;;;;;;5070653;28;20166;-48
2022/03/28 05:53:25;;;;;;;13.50;8.27;;;7.60;57.70;;;;;;5048838;28;20534;-47
2022/03/28 05:55:51;;;;;;;15.07;9.30;;;7.60;57.90;;;;;;5053808;28;20086;-50
2022/03/28 05:58:18;;;;;;;11.02;8.10;;;7.60;58.00;;;;;;5053474;28;20045;-48
2022/03/28 06:00:45;;;;;;;15.05;8.13;;;7.60;58.10;;;;;;5039014;28;20390;-48
2022/03/28 06:03:13;;;;;;;14.48;8.85;;;7.70;58.30;;;;;;5056477;28;20079;-46
2022/03/28 06:06:03;;;;;;;15.25;8.27;;;7.70;58.40;;;;;;5050927;28;20045;-50
2022/03/28 06:08:30;;;;;;;14.45;8.73;;;7.70;58.40;;;;;;5040554;28;20060;-51
2022/03/28 06:10:57;;;;;;;15.95;8.68;;;7.70;58.60;;;;;;5039418;28;20151;-48
2022/03/28 06:13:24;;;;;;;14.15;8.85;;;7.70;58.70;;;;;;5045502;28;20042;-47
2022/03/28 06:15:50;;;;;;;13.05;8.18;;;7.80;58.90;;;;;;5064160;28;20071;-47
2022/03/28 06:18:17;;;;;;;13.40;8.80;;;7.80;59.00;;;;;;5050259;28;20055;-49
2022/03/28 06:20:44;;;;;;;15.55;8.65;;;7.80;59.10;;;;;;5050027;28;20044;-48
2022/03/28 06:23:12;;;;;;;14.98;8.77;;;7.90;59.20;;;;;;5061451;28;20116;-49
2022/03/28 06:25:40;;;;;;;14.82;8.98;;;7.90;59.30;;;;;;5057172;28;20072;-50
2022/03/28 06:28:07;;;;;;;12.20;8.77;;;7.90;59.50;;;;;;5042420;28;20130;-47
2022/03/28 06:30:34;;;;;;;15.25;9.88;;;8.00;59.60;;;;;;5055975;28;20641;-51
2022/03/28 06:33:01;;;;;;;15.43;9.40;;;8.00;59.80;;;;;;5046568;28;20099;-49
2022/03/28 06:35:28;;;;;;;15.05;9.77;;;8.10;60.60;;;;;;5047632;28;20470;-47
2022/03/28 06:37:55;;;;;;;12.60;9.07;;;8.10;60.70;;;;;;5048273;28;20124;-48
2022/03/28 06:40:25;;;;;;;16.88;10.48;;;8.20;60.10;;;;;;5050722;28;20106;-47
2022/03/28 06:42:52;;;;;;;14.57;10.52;;;8.30;60.30;;;;;;5069243;28;20102;-48
2022/03/28 06:45:19;;;;;;;13.98;9.20;;;8.30;60.30;;;;;;5057299;28;20619;-48
2022/03/28 06:47:52;;;;;;;16.38;9.77;;;8.40;60.40;;;;;;5043087;28;20439;-51
2022/03/28 06:50:21;;;;;;;15.18;9.68;;;8.40;60.40;;;;;;5051379;28;20079;-51
2022/03/28 06:52:48;;;;;;;16.02;10.25;;;8.60;60.70;;;;;;5042068;28;20096;-48
2022/03/28 06:55:15;;;;;;;19.52;10.93;;;8.60;60.70;;;;;;5050804;28;20033;-50
2022/03/28 06:57:41;;;;;;;19.35;12.73;;;8.60;60.80;;;;;;5050778;28;20072;-47
2022/03/28 07:00:12;;;;;;;21.52;12.27;;;8.70;61.00;;;;;;5050029;28;20086;-48
2022/03/28 07:02:40;;;;;;;17.88;12.27;;;8.80;61.20;;;;;;5062836;28;20044;-48
2022/03/28 07:05:08;;;;;;;18.00;11.55;;;8.80;61.20;;;;;;5051788;28;20041;-49
2022/03/28 07:07:39;;;;;;;19.70;12.05;;;8.90;61.20;;;;;;5049168;28;20094;-48
2022/03/28 07:10:07;;;;;;;20.57;13.13;;;9.00;61.80;;;;;;5050298;28;20044;-48
2022/03/28 07:12:34;;;;;;;19.80;12.45;;;9.10;61.40;;;;;;5045128;28;20299;-47
2022/03/28 07:15:00;;;;;;;23.80;14.10;;;9.10;61.50;;;;;;5048664;28;20123;-47
2022/03/28 07:17:27;;;;;;;26.63;15.00;;;9.20;61.60;;;;;;5049230;28;20048;-49
2022/03/28 07:19:54;;;;;;;22.40;13.57;;;9.30;61.80;;;;;;5048554;28;20037;-47
2022/03/28 07:22:21;;;;;;;20.90;14.10;;;9.30;61.90;;;;;;5046080;28;20052;-48
2022/03/28 07:24:47;;;;;;;25.40;15.60;;;9.40;62.20;;;;;;5043668;28;20049;-53
2022/03/28 07:27:14;;;;;;;25.85;16.40;;;9.50;62.20;;;;;;5050211;28;20040;-48
2022/03/28 07:29:43;;;;;;;26.50;16.90;;;9.60;62.50;;;;;;5052681;28;20048;-47
2022/03/28 07:32:10;;;;;;;30.77;16.67;;;9.70;62.80;;;;;;5072532;28;20044;-48
2022/03/28 07:34:38;;;;;;;28.10;17.45;;;9.80;62.90;;;;;;5051038;28;20041;-49
2022/03/28 07:37:09;;;;;;;27.65;17.83;;;9.90;63.20;;;;;;5057806;28;20114;-51
2022/03/28 07:39:38;;;;;;;24.60;15.13;;;9.90;63.10;;;;;;5052505;28;20041;-53
2022/03/28 07:42:07;;;;;;;32.53;18.55;;;10.10;63.10;;;;;;5049624;28;20049;-47
2022/03/28 07:44:35;;;;;;;24.23;16.58;;;10.20;63.10;;;;;;5050328;28;20048;-48
2022/03/28 07:47:04;;;;;;;32.15;18.83;;;10.30;63.00;;;;;;5046347;28;20566;-47
2022/03/28 07:49:31;;;;;;;28.50;18.40;;;10.40;63.10;;;;;;5069021;28;20053;-47
2022/03/28 07:51:58;;;;;;;28.52;17.90;;;10.50;63.10;;;;;;5051617;28;20041;-49
2022/03/28 07:54:24;;;;;;;30.85;18.55;;;10.60;63.10;;;;;;5045914;28;20493;-47
2022/03/28 07:56:51;;;;;;;31.65;18.88;;;10.70;63.00;;;;;;5047099;28;20037;-47
2022/03/28 07:59:18;;;;;;;26.60;18.17;;;10.80;63.20;;;;;;5045923;28;20424;-52
2022/03/28 08:01:46;;;;;;;30.52;20.00;;;10.90;63.10;;;;;;5031439;28;20049;-50
2022/03/28 08:04:13;;;;;;;28.10;19.67;;;11.00;63.10;;;;;;5049145;28;20109;-48
2022/03/28 08:06:40;;;;;;;30.83;19.35;;;11.10;63.00;;;;;;5065540;28;20033;-48
2022/03/28 08:09:07;;;;;;;32.00;18.58;;;11.20;62.80;;;;;;5057382;28;20075;-51
2022/03/28 08:11:34;;;;;;;32.80;20.13;;;11.30;62.70;;;;;;5052259;28;20455;-47
2022/03/28 08:14:01;;;;;;;30.45;20.58;;;11.40;62.90;;;;;;5046800;28;20041;-48
2022/03/28 08:16:28;;;;;;;31.48;19.30;;;11.50;63.00;;;;;;5048387;28;20040;-47
2022/03/28 08:18:55;;;;;;;29.08;19.15;;;11.60;63.10;;;;;;5043321;28;20048;-50
2022/03/28 08:21:22;;;;;;;32.10;21.58;;;11.70;62.80;;;;;;5042030;28;20083;-53
2022/03/28 08:23:49;;;;;;;28.17;18.17;;;11.80;62.70;;;;;;5047502;28;20071;-50
2022/03/28 08:26:16;;;;;;;30.45;19.95;;;11.90;62.60;;;;;;5062323;28;20052;-48
2022/03/28 08:28:46;;;;;;;31.38;18.90;;;12.00;63.00;;;;;;5071769;28;20040;-47
2022/03/28 08:31:13;;;;;;;37.72;21.75;;;12.10;62.60;;;;;;5055045;28;20064;-49
2022/03/28 08:33:40;;;;;;;31.50;19.15;;;12.20;62.40;;;;;;5059090;28;20055;-48
2022/03/28 08:36:08;;;;;;;31.15;20.98;;;12.30;62.30;;;;;;5069404;28;20442;-50
2022/03/28 08:38:35;;;;;;;33.25;21.10;;;12.40;62.00;;;;;;5071730;28;20687;-47
2022/03/28 08:41:02;;;;;;;36.22;22.10;;;12.50;61.60;;;;;;5051809;28;20048;-47
2022/03/28 08:43:29;;;;;;;33.25;20.67;;;12.60;61.40;;;;;;5064962;28;20044;-48
2022/03/28 08:46:01;;;;;;;31.60;20.30;;;12.70;61.20;;;;;;5070537;28;20044;-48
2022/03/28 08:48:33;;;;;;;28.67;20.27;;;12.80;61.30;;;;;;5061906;28;20048;-48
2022/03/28 08:51:02;;;;;;;32.00;19.27;;;12.90;61.40;;;;;;5048818;28;20048;-50
2022/03/28 08:53:29;;;;;;;32.58;19.20;;;13.00;61.10;;;;;;5066531;28;20033;-48
2022/03/28 08:55:55;;;;;;;29.45;19.27;;;13.10;61.30;;;;;;5070450;28;20488;-48
2022/03/28 08:58:22;;;;;;;33.42;19.73;;;13.20;61.10;;;;;;5058919;28;20036;-51
2022/03/28 09:00:49;;;;;;;27.50;18.00;;;13.30;60.70;;;;;;5041738;28;20040;-48
2022/03/28 09:03:19;;;;;;;29.50;19.25;;;13.40;60.70;;;;;;5065244;28;20587;-48
2022/03/28 09:05:49;;;;;;;26.98;17.90;;;13.40;60.30;;;;;;5065639;28;20522;-50
2022/03/28 09:08:16;;;;;;;28.20;18.55;;;13.50;59.90;;;;;;5041501;28;20464;-52
2022/03/28 09:10:47;;;;;;;25.98;18.05;;;13.60;59.60;;;;;;5051300;28;20064;-50
2022/03/28 09:13:19;;;;;;;29.88;17.98;;;13.70;59.60;;;;;;5052029;28;20040;-48
2022/03/28 09:15:50;;;;;;;27.23;18.15;;;13.80;59.10;;;;;;5060393;28;20040;-48
2022/03/28 09:18:34;;;;;;;28.85;17.65;;;13.90;59.30;;;;;;5069825;28;20451;-50
2022/03/28 09:21:13;;;;;;;26.13;17.38;;;14.00;59.70;;;;;;5063861;28;20498;-48
2022/03/28 09:23:42;;;;;;;25.30;17.15;;;14.10;59.70;;;;;;5045484;28;20492;-48
2022/03/28 09:26:16;;;;;;;28.50;17.80;;;14.20;59.20;;;;;;5045122;28;20068;-47
2022/03/28 09:28:53;;;;;;;28.80;17.92;;;14.20;59.00;;;;;;5051772;28;20101;-47
2022/03/28 09:31:24;;;;;;;26.95;18.23;;;14.30;58.70;;;;;;5062666;28;20040;-48
2022/03/28 09:34:08;;;;;;;27.67;18.55;;;14.40;59.10;;;;;;5049940;28;20134;-50
2022/03/28 09:36:49;;;;;;;25.65;17.80;;;14.50;59.50;;;;;;5049312;28;20408;-51
2022/03/28 09:39:21;;;;;;;28.80;19.42;;;14.60;58.90;;;;;;5046734;28;20037;-48
2022/03/28 09:42:01;;;;;;;27.40;19.48;;;14.70;58.60;;;;;;5040136;28;20049;-49
2022/03/28 09:44:43;;;;;;;26.63;17.95;;;14.80;58.70;;;;;;5042397;28;20037;-47
2022/03/28 09:47:12;;;;;;;27.15;18.45;;;14.90;58.70;;;;;;5042374;28;20045;-48
2022/03/28 09:49:42;;;;;;;27.17;18.05;;;15.00;57.80;;;;;;5051480;28;20443;-48
2022/03/28 09:52:11;;;;;;;25.77;18.42;;;15.10;57.80;;;;;;5065553;28;20090;-49
2022/03/28 09:54:51;;;;;;;28.00;18.67;;;15.10;57.50;;;;;;5053683;28;20583;-50
2022/03/28 09:57:31;;;;;;;26.15;17.52;;;15.30;57.50;;;;;;5062337;28;20521;-53
2022/03/28 10:00:12;;;;;;;22.98;16.30;;;15.30;57.30;;;;;;5051181;28;20048;-51
2022/03/28 10:02:40;;;;;;;24.02;17.23;;;15.40;56.80;;;;;;5052073;28;20041;-49
2022/03/28 10:05:08;;;;;;;31.52;18.90;;;15.50;56.50;;;;;;5045054;28;20045;-50
2022/03/28 10:07:38;;;;;;;25.35;17.42;;;15.50;56.90;;;;;;5048077;28;20385;-48
2022/03/28 10:10:06;;;;;;;26.83;18.27;;;15.60;56.60;;;;;;5045482;28;20732;-50
2022/03/28 10:12:34;;;;;;;28.70;18.30;;;15.60;56.60;;;;;;5041269;28;20041;-52
2022/03/28 10:15:01;;;;;;;26.83;18.17;;;15.70;56.40;;;;;;5040657;28;20060;-49
2022/03/28 10:17:30;;;;;;;25.17;18.10;;;15.80;56.10;;;;;;5047628;28;20043;-48
2022/03/28 10:19:57;;;;;;;30.92;19.15;;;15.80;56.30;;;;;;5041277;28;20034;-48
2022/03/28 10:22:24;;;;;;;23.65;17.10;;;15.90;56.20;;;;;;5049361;28;20070;-48
2022/03/28 10:24:53;;;;;;;25.15;17.20;;;16.00;55.80;;;;;;5042072;28;20228;-48
2022/03/28 10:27:21;;;;;;;27.10;17.63;;;16.10;56.30;;;;;;5043752;28;20455;-48
2022/03/28 10:29:48;;;;;;;24.98;18.27;;;16.10;56.30;;;;;;5040436;28;20037;-48
2022/03/28 10:32:17;;;;;;;25.80;17.58;;;16.20;55.90;;;;;;5046909;28;20049;-49
2022/03/28 10:35:00;;;;;;;25.38;17.30;;;16.30;55.50;;;;;;5044390;28;20091;-47
2022/03/28 10:37:27;;;;;;;23.88;16.23;;;16.40;55.00;;;;;;5042486;28;20114;-48
2022/03/28 10:40:12;;;;;;;25.02;17.23;;;16.40;54.70;;;;;;5052291;28;20045;-51
2022/03/28 10:42:45;;;;;;;27.80;18.63;;;16.50;54.40;;;;;;5045877;28;20045;-47
2022/03/28 10:45:18;;;;;;;29.33;17.95;;;16.50;54.50;;;;;;5066305;28;20114;-50
2022/03/28 10:47:54;;;;;;;31.30;19.13;;;16.60;54.30;;;;;;5069794;28;20643;-50
2022/03/28 10:50:26;;;;;;;27.15;19.25;;;16.60;54.60;;;;;;5038561;28;20044;-49
2022/03/28 10:53:03;;;;;;;25.85;17.63;;;16.70;54.40;;;;;;5048130;28;20049;-47
2022/03/28 10:55:45;;;;;;;28.05;18.80;;;16.70;54.40;;;;;;5043347;28;20036;-48
2022/03/28 10:58:15;;;;;;;29.20;19.00;;;16.80;54.30;;;;;;5048347;28;20516;-51
2022/03/28 11:01:13;;;;;;;31.52;18.95;;;16.90;54.00;;;;;;5039994;28;20046;-50
2022/03/28 11:04:00;;;;;;;25.40;17.20;;;16.90;53.70;;;;;;5052960;28;20478;-47
2022/03/28 11:06:53;;;;;;;25.60;18.27;;;17.00;53.50;;;;;;5060772;28;20514;-51
2022/03/28 11:09:41;;;;;;;29.65;19.17;;;17.10;54.90;;;;;;5056911;28;20047;-47
2022/03/28 11:12:40;;;;;;;30.48;19.17;;;17.20;54.00;;;;;;5046222;28;20638;-50
2022/03/28 11:15:27;;;;;;;27.48;18.60;;;17.20;53.70;;;;;;5062205;28;20042;-49
2022/03/28 11:18:02;;;;;;;26.45;18.33;;;17.30;53.00;;;;;;5042837;28;20044;-48
2022/03/28 11:20:47;;;;;;;28.15;18.75;;;17.40;52.80;;;;;;5052997;28;20040;-49
2022/03/28 11:23:15;;;;;;;30.45;19.00;;;17.50;52.60;;;;;;5060321;28;20048;-48
2022/03/28 11:25:46;;;;;;;29.02;18.20;;;17.50;52.20;;;;;;5071911;28;20109;-51
2022/03/28 11:28:22;;;;;;;28.00;17.88;;;17.60;52.00;;;;;;5058036;28;20069;-48
2022/03/28 11:30:53;;;;;;;30.98;18.83;;;17.70;51.90;;;;;;5063343;28;20056;-49
2022/03/28 11:33:22;;;;;;;30.63;18.30;;;17.70;52.00;;;;;;5058667;28;20102;-48
2022/03/28 11:35:58;;;;;;;29.98;19.65;;;17.70;52.00;;;;;;5044942;28;20116;-52
2022/03/28 11:38:27;;;;;;;29.42;20.38;;;17.80;52.40;;;;;;5054762;28;20045;-45
2022/03/28 11:40:55;;;;;;;28.70;20.45;;;17.90;51.90;;;;;;5048326;28;20493;-48
2022/03/28 11:43:33;;;;;;;27.38;18.77;;;18.00;51.40;;;;;;5052742;28;20592;-46
2022/03/28 11:46:01;;;;;;;31.38;18.85;;;18.00;51.10;;;;;;5041116;28;20041;-48
2022/03/28 11:48:29;;;;;;;27.83;18.17;;;18.10;51.00;;;;;;5042700;28;20045;-49
2022/03/28 11:50:57;;;;;;;31.23;20.73;;;18.20;51.20;;;;;;5051577;28;20037;-45
2022/03/28 11:53:24;;;;;;;30.52;19.10;;;18.30;51.20;;;;;;5050553;28;20045;-46
2022/03/28 11:55:54;;;;;;;27.30;18.80;;;18.30;51.10;;;;;;5044995;28;20086;-47
2022/03/28 11:58:29;;;;;;;29.80;19.42;;;18.40;51.20;;;;;;5056430;28;20048;-49
2022/03/28 12:01:09;;;;;;;29.23;17.73;;;18.40;50.60;;;;;;5060060;28;20091;-49
2022/03/28 12:03:47;;;;;;;29.42;18.00;;;18.50;50.10;;;;;;5051038;28;20119;-50
2022/03/28 12:06:40;;;;;;;30.27;19.52;;;18.70;49.80;;;;;;5051686;28;20044;-46
2022/03/28 12:09:07;;;;;;;26.92;16.58;;;18.70;50.00;;;;;;5062711;28;20044;-45
2022/03/28 12:11:37;;;;;;;32.45;18.17;;;18.80;50.40;;;;;;5051894;28;20055;-46
2022/03/28 12:14:04;;;;;;;27.80;18.15;;;18.90;50.30;;;;;;5067881;28;20053;-49
2022/03/28 12:16:30;;;;;;;27.80;19.55;;;19.10;50.50;;;;;;5059205;28;20373;-46
2022/03/28 12:19:01;;;;;;;28.17;18.55;;;19.10;49.80;;;;;;5064528;28;20036;-46
2022/03/28 12:21:28;;;;;;;29.92;18.42;;;19.20;49.40;;;;;;5049839;28;20439;-48
2022/03/28 12:23:55;;;;;;;28.83;19.40;;;19.50;49.50;;;;;;5034253;28;20394;-46
2022/03/28 12:26:22;;;;;;;27.67;18.63;;;19.40;49.10;;;;;;5059695;28;20049;-49
2022/03/28 12:28:48;;;;;;;26.90;17.23;;;19.50;48.40;;;;;;5071313;28;20044;-46
2022/03/28 12:31:16;;;;;;;29.92;18.60;;;19.60;48.40;;;;;;5071837;28;20052;-48
2022/03/28 12:33:44;;;;;;;30.02;18.77;;;19.60;48.40;;;;;;5046196;28;20436;-47
2022/03/28 12:36:14;;;;;;;29.63;20.83;;;19.70;49.40;;;;;;5053226;28;20048;-46
2022/03/28 12:38:44;;;;;;;31.97;19.33;;;19.80;47.90;;;;;;5066226;28;20043;-50
2022/03/28 12:41:15;;;;;;;33.65;22.15;;;19.80;48.50;;;;;;5058592;28;20063;-49
2022/03/28 12:43:47;;;;;;;33.38;20.27;;;19.90;48.00;;;;;;5049280;28;20605;-48
2022/03/28 12:46:16;;;;;;;28.70;19.10;;;19.90;48.40;;;;;;5049924;28;20044;-45
2022/03/28 12:48:51;;;;;;;28.10;18.75;;;20.00;47.80;;;;;;5043622;28;20099;-46
2022/03/28 12:51:25;;;;;;;32.17;19.77;;;20.10;47.40;;;;;;5039163;28;20515;-47